createdAt,value
2022-09-23T00:00:39.763Z,96.94
2022-09-23T00:01:39.744Z,97.13
2022-09-23T00:02:39.703Z,97.41
2022-09-23T00:03:39.641Z,97.70
2022-09-23T00:04:39.584Z,97.31
2022-09-23T00:05:39.548Z,97.70
2022-09-23T00:06:39.493Z,97.41
2022-09-23T00:07:39.446Z,97.41
2022-09-23T00:08:39.405Z,96.84
2022-09-23T00:09:39.379Z,97.31
2022-09-23T00:10:39.326Z,96.84
2022-09-23T00:11:39.284Z,96.46
2022-09-23T00:12:39.237Z,97.22
2022-09-23T00:13:39.197Z,97.22
2022-09-23T00:14:39.153Z,96.46
2022-09-23T00:15:39.102Z,96.27
2022-09-23T00:16:39.118Z,96.27
2022-09-23T00:17:39.006Z,96.36
2022-09-23T00:18:38.987Z,96.36
2022-09-23T00:19:38.908Z,96.55
2022-09-23T00:20:38.866Z,95.98
2022-09-23T00:21:38.826Z,96.08
2022-09-23T00:22:38.775Z,95.98
2022-09-23T00:23:38.744Z,95.79
2022-09-23T00:24:38.707Z,95.41
2022-09-23T00:25:38.648Z,95.51
2022-09-23T00:26:38.597Z,95.41
2022-09-23T00:27:38.554Z,95.89
2022-09-23T00:28:38.512Z,95.79
2022-09-23T00:29:38.462Z,95.98
2022-09-23T00:30:38.491Z,96.65
2022-09-23T00:31:38.388Z,96.41
2022-09-23T00:32:38.329Z,96.36
2022-09-23T00:33:38.286Z,96.22
2022-09-23T00:34:38.242Z,96.70
2022-09-23T00:35:38.197Z,96.60
2022-09-23T00:36:38.174Z,97.17
2022-09-23T00:37:38.105Z,97.46
2022-09-23T00:38:38.063Z,97.17
2022-09-23T00:39:38.036Z,97.27
2022-09-23T00:40:37.988Z,96.70
2022-09-23T00:41:37.925Z,97.17
2022-09-23T00:42:37.884Z,97.84
2022-09-23T00:43:37.841Z,97.46
2022-09-23T00:44:37.792Z,97.46
2022-09-23T00:45:37.777Z,97.55
2022-09-23T00:46:37.700Z,97.55
2022-09-23T00:47:37.656Z,98.13
2022-09-23T00:48:37.614Z,97.74
2022-09-23T00:49:37.572Z,98.22
2022-09-23T00:50:37.550Z,98.03
2022-09-23T00:51:37.479Z,98.13
2022-09-23T00:52:37.432Z,97.84
2022-09-23T00:53:37.391Z,97.27
2022-09-23T00:54:37.343Z,98.13
2022-09-23T00:55:37.300Z,98.22
2022-09-23T00:56:37.281Z,98.13
2022-09-23T00:57:37.213Z,98.13
2022-09-23T00:58:37.175Z,98.13
2022-09-23T00:59:37.143Z,98.13
2022-09-23T01:00:37.082Z,98.13
2022-09-23T01:01:37.068Z,98.13
2022-09-23T01:02:37.036Z,98.13
2022-09-23T01:03:36.943Z,97.93
2022-09-23T01:04:36.904Z,97.74
2022-09-23T01:05:36.917Z,98.03
2022-09-23T01:06:36.825Z,98.22
2022-09-23T01:07:36.771Z,98.69
2022-09-23T01:08:36.716Z,97.84
2022-09-23T01:09:36.678Z,98.13
2022-09-23T01:10:36.688Z,97.55
2022-09-23T01:11:36.599Z,97.17
2022-09-23T01:12:36.544Z,97.36
2022-09-23T01:13:36.493Z,97.36
2022-09-23T01:14:36.450Z,97.55
2022-09-23T01:15:36.404Z,97.55
2022-09-23T01:16:36.452Z,97.36
2022-09-23T01:17:36.315Z,97.27
2022-09-23T01:18:36.269Z,97.46
2022-09-23T01:19:36.232Z,97.17
2022-09-23T01:20:36.180Z,97.55
2022-09-23T01:21:36.134Z,97.17
2022-09-23T01:22:36.115Z,97.17
2022-09-23T01:23:36.043Z,97.36
2022-09-23T01:24:35.998Z,97.65
2022-09-23T01:25:35.955Z,97.46
2022-09-23T01:26:35.911Z,97.65
2022-09-23T01:27:35.860Z,97.74
2022-09-23T01:28:35.845Z,97.36
2022-09-23T01:29:35.771Z,97.65
2022-09-23T01:30:35.765Z,98.13
2022-09-23T01:31:35.686Z,97.98
2022-09-23T01:32:35.635Z,98.22
2022-09-23T01:33:35.596Z,98.08
2022-09-23T01:34:35.572Z,97.98
2022-09-23T01:35:35.506Z,97.98
2022-09-23T01:36:35.460Z,98.08
2022-09-23T01:37:35.411Z,98.27
2022-09-23T01:38:35.368Z,97.98
2022-09-23T01:39:35.323Z,98.36
2022-09-23T01:40:35.377Z,98.36
2022-09-23T01:41:35.232Z,98.83
2022-09-23T01:42:35.186Z,98.65
2022-09-23T01:43:35.145Z,98.65
2022-09-23T01:44:35.099Z,98.83
2022-09-23T01:45:35.075Z,98.74
2022-09-23T01:46:35.010Z,99.12
2022-09-23T01:47:34.987Z,98.74
2022-09-23T01:48:34.993Z,99.12
2022-09-23T01:49:34.868Z,98.93
2022-09-23T01:50:34.841Z,98.55
2022-09-23T01:51:34.788Z,98.55
2022-09-23T01:52:34.741Z,98.36
2022-09-23T01:53:34.690Z,98.36
2022-09-23T01:54:34.648Z,98.46
2022-09-23T01:55:34.604Z,98.46
2022-09-23T01:56:34.577Z,98.17
2022-09-23T01:57:34.507Z,97.79
2022-09-23T01:58:34.470Z,98.46
2022-09-23T01:59:34.445Z,98.27
2022-09-23T02:00:34.376Z,98.83
2022-09-23T02:01:34.405Z,98.36
2022-09-23T02:02:34.413Z,98.55
2022-09-23T02:03:34.238Z,97.88
2022-09-23T02:04:34.198Z,97.98
2022-09-23T02:05:34.154Z,98.17
2022-09-23T02:06:34.106Z,97.88
2022-09-23T02:07:34.062Z,97.22
2022-09-23T02:08:34.041Z,97.98
2022-09-23T02:09:33.967Z,97.98
2022-09-23T02:10:33.926Z,98.17
2022-09-23T02:11:33.879Z,97.98
2022-09-23T02:12:33.852Z,97.13
2022-09-23T02:13:33.787Z,97.50
2022-09-23T02:14:33.743Z,97.69
2022-09-23T02:15:33.707Z,97.31
2022-09-23T02:16:33.737Z,98.08
2022-09-23T02:17:33.606Z,97.98
2022-09-23T02:18:33.592Z,98.08
2022-09-23T02:19:33.517Z,98.08
2022-09-23T02:20:33.473Z,98.17
2022-09-23T02:21:33.433Z,98.08
2022-09-23T02:22:33.382Z,97.98
2022-09-23T02:23:33.339Z,98.08
2022-09-23T02:24:33.311Z,97.98
2022-09-23T02:25:33.246Z,98.08
2022-09-23T02:26:33.204Z,98.46
2022-09-23T02:27:33.171Z,98.17
2022-09-23T02:28:33.109Z,97.98
2022-09-23T02:29:33.069Z,98.27
2022-09-23T02:30:33.019Z,97.98
2022-09-23T02:31:33.057Z,98.36
2022-09-23T02:32:32.931Z,98.27
2022-09-23T02:33:32.911Z,98.27
2022-09-23T02:34:32.859Z,98.08
2022-09-23T02:35:32.801Z,98.36
2022-09-23T02:36:32.749Z,98.08
2022-09-23T02:37:32.729Z,98.55
2022-09-23T02:38:32.668Z,97.98
2022-09-23T02:39:32.612Z,97.79
2022-09-23T02:40:32.608Z,97.69
2022-09-23T02:41:32.519Z,97.98
2022-09-23T02:42:32.508Z,97.98
2022-09-23T02:43:32.434Z,97.98
2022-09-23T02:44:32.391Z,98.08
2022-09-23T02:45:32.369Z,98.08
2022-09-23T02:46:32.295Z,98.17
2022-09-23T02:47:32.256Z,97.98
2022-09-23T02:48:32.231Z,97.88
2022-09-23T02:49:32.169Z,97.98
2022-09-23T02:50:32.115Z,98.08
2022-09-23T02:51:32.074Z,98.17
2022-09-23T02:52:32.027Z,97.60
2022-09-23T02:53:31.983Z,97.79
2022-09-23T02:54:31.957Z,98.27
2022-09-23T02:55:31.885Z,98.74
2022-09-23T02:56:31.848Z,99.02
2022-09-23T02:57:31.800Z,98.65
2022-09-23T02:58:31.755Z,98.55
2022-09-23T02:59:31.717Z,98.46
2022-09-23T03:00:31.741Z,98.27
2022-09-23T03:01:31.652Z,97.79
2022-09-23T03:02:31.644Z,98.08
2022-09-23T03:03:31.533Z,97.88
2022-09-23T03:04:31.485Z,97.98
2022-09-23T03:05:31.445Z,97.98
2022-09-23T03:06:31.509Z,97.98
2022-09-23T03:07:31.347Z,97.88
2022-09-23T03:08:31.309Z,97.79
2022-09-23T03:09:31.258Z,98.08
2022-09-23T03:10:31.217Z,97.98
2022-09-23T03:11:31.166Z,97.69
2022-09-23T03:12:31.140Z,97.98
2022-09-23T03:13:31.078Z,98.27
2022-09-23T03:14:31.031Z,98.36
2022-09-23T03:15:30.988Z,97.98
2022-09-23T03:16:31.012Z,98.46
2022-09-23T03:17:30.897Z,98.17
2022-09-23T03:18:30.879Z,97.69
2022-09-23T03:19:30.807Z,97.79
2022-09-23T03:20:30.762Z,98.55
2022-09-23T03:21:30.713Z,98.08
2022-09-23T03:22:30.673Z,98.55
2022-09-23T03:23:30.629Z,97.69
2022-09-23T03:24:30.601Z,97.98
2022-09-23T03:25:30.538Z,98.17
2022-09-23T03:26:30.493Z,98.27
2022-09-23T03:27:30.446Z,97.98
2022-09-23T03:28:30.401Z,97.98
2022-09-23T03:29:30.355Z,97.41
2022-09-23T03:30:30.324Z,97.41
2022-09-23T03:31:30.318Z,97.41
2022-09-23T03:32:30.221Z,97.60
2022-09-23T03:33:30.239Z,97.41
2022-09-23T03:34:30.126Z,97.03
2022-09-23T03:35:30.082Z,97.31
2022-09-23T03:36:30.041Z,97.13
2022-09-23T03:37:29.992Z,97.31
2022-09-23T03:38:29.954Z,97.50
2022-09-23T03:39:29.946Z,97.31
2022-09-23T03:40:29.934Z,97.13
2022-09-23T03:41:29.808Z,97.41
2022-09-23T03:42:29.765Z,97.22
2022-09-23T03:43:30.090Z,97.50
2022-09-23T03:44:29.676Z,97.27
2022-09-23T03:45:29.736Z,97.88
2022-09-23T03:46:29.620Z,97.93
2022-09-23T03:47:29.542Z,98.08
2022-09-23T03:48:29.494Z,97.98
2022-09-23T03:49:29.444Z,97.98
2022-09-23T03:50:29.402Z,98.22
2022-09-23T03:51:29.370Z,97.98
2022-09-23T03:52:29.314Z,97.93
2022-09-23T03:53:29.293Z,97.79
2022-09-23T03:54:29.221Z,98.22
2022-09-23T03:55:29.179Z,98.27
2022-09-23T03:56:29.129Z,98.08
2022-09-23T03:57:29.080Z,98.17
2022-09-23T03:58:29.042Z,98.17
2022-09-23T03:59:29.007Z,98.22
2022-09-23T04:00:28.951Z,98.22
2022-09-23T04:01:28.978Z,98.27
2022-09-23T04:02:28.917Z,98.03
2022-09-23T04:03:28.816Z,97.98
2022-09-23T04:04:28.768Z,98.17
2022-09-23T04:05:28.724Z,98.03
2022-09-23T04:06:28.677Z,97.74
2022-09-23T04:07:28.648Z,97.74
2022-09-23T04:08:28.608Z,98.08
2022-09-23T04:09:28.544Z,97.98
2022-09-23T04:10:28.499Z,97.08
2022-09-23T04:11:28.457Z,97.41
2022-09-23T04:12:28.408Z,97.45
2022-09-23T04:13:28.364Z,97.41
2022-09-23T04:14:28.333Z,97.50
2022-09-23T04:15:28.268Z,97.45
2022-09-23T04:16:28.271Z,97.31
2022-09-23T04:17:28.187Z,97.31
2022-09-23T04:18:28.135Z,97.27
2022-09-23T04:19:28.091Z,97.45
2022-09-23T04:20:28.081Z,97.60
2022-09-23T04:21:27.997Z,97.08
2022-09-23T04:22:27.953Z,97.36
2022-09-23T04:23:27.911Z,97.27
2022-09-23T04:24:27.863Z,97.50
2022-09-23T04:25:27.817Z,97.27
2022-09-23T04:26:27.795Z,97.50
2022-09-23T04:27:27.728Z,97.08
2022-09-23T04:28:27.682Z,97.17
2022-09-23T04:29:27.646Z,97.27
2022-09-23T04:30:27.593Z,96.98
2022-09-23T04:31:27.616Z,96.60
2022-09-23T04:32:27.526Z,97.27
2022-09-23T04:33:27.452Z,97.45
2022-09-23T04:34:27.409Z,97.36
2022-09-23T04:35:27.362Z,97.45
2022-09-23T04:36:27.318Z,97.55
2022-09-23T04:37:27.271Z,97.36
2022-09-23T04:38:27.237Z,97.27
2022-09-23T04:39:27.180Z,97.27
2022-09-23T04:40:27.186Z,98.03
2022-09-23T04:41:27.087Z,98.03
2022-09-23T04:42:27.046Z,98.12
2022-09-23T04:43:27.012Z,97.36
2022-09-23T04:44:26.955Z,97.36
2022-09-23T04:45:26.909Z,97.36
2022-09-23T04:46:26.938Z,98.03
2022-09-23T04:47:26.819Z,97.93
2022-09-23T04:48:26.770Z,97.93
2022-09-23T04:49:26.751Z,97.74
2022-09-23T04:50:26.687Z,97.55
2022-09-23T04:51:26.637Z,98.50
2022-09-23T04:52:26.590Z,97.93
2022-09-23T04:53:26.549Z,97.74
2022-09-23T04:54:26.501Z,97.74
2022-09-23T04:55:26.758Z,97.93
2022-09-23T04:56:26.410Z,98.03
2022-09-23T04:57:26.361Z,98.03
2022-09-23T04:58:26.322Z,98.03
2022-09-23T04:59:26.284Z,97.36
2022-09-23T05:00:26.229Z,97.45
2022-09-23T05:01:26.296Z,97.27
2022-09-23T05:02:26.263Z,97.27
2022-09-23T05:03:26.092Z,97.64
2022-09-23T05:04:26.039Z,97.27
2022-09-23T05:05:26.007Z,97.64
2022-09-23T05:06:25.981Z,97.36
2022-09-23T05:07:25.913Z,97.64
2022-09-23T05:08:25.867Z,97.45
2022-09-23T05:09:25.822Z,97.45
2022-09-23T05:10:25.772Z,97.27
2022-09-23T05:11:25.752Z,97.27
2022-09-23T05:12:25.684Z,97.45
2022-09-23T05:13:25.637Z,97.27
2022-09-23T05:14:25.594Z,97.08
2022-09-23T05:15:25.544Z,97.93
2022-09-23T05:16:25.611Z,97.93
2022-09-23T05:17:25.469Z,97.93
2022-09-23T05:18:25.410Z,97.93
2022-09-23T05:19:25.365Z,98.12
2022-09-23T05:20:25.354Z,97.93
2022-09-23T05:21:25.275Z,97.74
2022-09-23T05:22:25.227Z,97.83
2022-09-23T05:23:25.186Z,98.12
2022-09-23T05:24:25.138Z,98.03
2022-09-23T05:25:25.090Z,97.74
2022-09-23T05:26:25.060Z,97.74
2022-09-23T05:27:25.001Z,97.83
2022-09-23T05:28:24.958Z,97.74
2022-09-23T05:29:24.911Z,97.74
2022-09-23T05:30:24.863Z,97.64
2022-09-23T05:31:24.890Z,97.83
2022-09-23T05:32:24.791Z,98.03
2022-09-23T05:33:24.730Z,97.93
2022-09-23T05:34:24.679Z,98.03
2022-09-23T05:35:24.636Z,97.08
2022-09-23T05:36:24.590Z,97.31
2022-09-23T05:37:24.543Z,97.03
2022-09-23T05:38:24.518Z,97.41
2022-09-23T05:39:24.459Z,97.36
2022-09-23T05:40:24.442Z,96.98
2022-09-23T05:41:24.361Z,97.03
2022-09-23T05:42:24.316Z,97.31
2022-09-23T05:43:24.275Z,97.31
2022-09-23T05:44:24.251Z,97.41
2022-09-23T05:45:26.755Z,97.60
2022-09-23T05:46:24.169Z,97.31
2022-09-23T05:47:24.169Z,97.41
2022-09-23T05:48:24.065Z,97.13
2022-09-23T05:49:37.643Z,96.94
2022-09-23T05:50:23.979Z,97.41
2022-09-23T05:51:26.479Z,97.13
2022-09-23T05:52:23.864Z,96.36
2022-09-23T05:53:23.823Z,97.22
2022-09-23T05:54:23.778Z,97.03
2022-09-23T05:55:23.730Z,96.17
2022-09-23T05:56:23.718Z,96.46
2022-09-23T05:57:23.648Z,96.65
2022-09-23T05:58:23.594Z,95.89
2022-09-23T05:59:23.550Z,96.17
2022-09-23T06:03:47.176Z,96.55
2022-09-23T06:04:47.091Z,96.26
2022-09-23T06:05:47.057Z,96.26
2022-09-23T06:06:47.002Z,96.94
2022-09-23T06:07:46.954Z,97.13
2022-09-23T06:08:46.906Z,97.13
2022-09-23T06:09:46.887Z,97.50
2022-09-23T06:10:47.902Z,98.22
2022-09-23T06:11:46.781Z,98.22
2022-09-23T06:12:46.727Z,98.22
2022-09-23T06:13:46.678Z,98.13
2022-09-23T06:14:46.638Z,98.03
2022-09-23T06:15:46.656Z,97.84
2022-09-23T06:16:46.545Z,98.60
2022-09-23T06:17:46.499Z,97.93
2022-09-23T06:18:46.487Z,98.03
2022-09-23T06:19:46.405Z,97.89
2022-09-23T06:20:46.366Z,98.08
2022-09-23T06:21:46.320Z,97.99
2022-09-23T06:22:46.753Z,98.18
2022-09-23T06:23:46.239Z,97.79
2022-09-23T06:24:46.201Z,97.31
2022-09-23T06:25:46.140Z,96.84
2022-09-23T06:26:46.093Z,97.41
2022-09-23T06:27:46.107Z,97.17
2022-09-23T06:28:46.000Z,96.60
2022-09-23T06:29:45.956Z,96.51
2022-09-23T06:30:45.915Z,96.70
2022-09-23T06:31:45.904Z,96.89
2022-09-23T06:32:45.828Z,96.22
2022-09-23T06:33:45.827Z,95.56
2022-09-23T06:34:51.510Z,95.08
2022-09-23T06:35:56.098Z,95.12
2022-09-23T06:36:46.615Z,94.56
2022-09-23T06:37:45.602Z,94.56
2022-09-23T06:38:45.559Z,94.56
2022-09-23T06:39:45.527Z,94.56
2022-09-23T06:40:45.564Z,94.56
2022-09-23T06:41:45.643Z,94.56
2022-09-23T06:42:48.971Z,95.03
2022-09-23T06:43:45.335Z,94.84
2022-09-23T06:44:45.296Z,95.22
2022-09-23T06:45:45.275Z,95.27
2022-09-23T06:46:45.265Z,95.17
2022-09-23T06:47:45.159Z,95.75
2022-09-23T06:48:46.351Z,95.75
2022-09-23T06:49:45.075Z,95.75
2022-09-23T06:50:45.028Z,95.84
2022-09-23T06:51:45.022Z,95.84
2022-09-23T06:52:44.939Z,94.89
2022-09-23T06:53:44.896Z,95.46
2022-09-23T06:54:44.856Z,94.79
2022-09-23T06:55:44.808Z,95.03
2022-09-23T06:56:44.761Z,94.84
2022-09-23T06:57:44.736Z,94.36
2022-09-23T06:58:44.675Z,94.56
2022-09-23T06:59:44.632Z,93.98
2022-09-23T07:00:44.585Z,94.56
2022-09-23T07:01:44.674Z,94.65
2022-09-23T07:02:44.628Z,94.27
2022-09-23T07:03:44.479Z,93.98
2022-09-23T07:04:44.437Z,94.17
2022-09-23T07:05:44.369Z,93.46
2022-09-23T07:06:44.319Z,93.26
2022-09-23T07:07:44.280Z,93.07
2022-09-23T07:08:44.235Z,92.97
2022-09-23T07:09:44.194Z,92.79
2022-09-23T07:10:44.161Z,92.12
2022-09-23T07:11:44.132Z,91.59
2022-09-23T07:12:44.063Z,90.92
2022-09-23T07:13:44.020Z,91.02
2022-09-23T07:14:43.973Z,91.02
2022-09-23T07:15:44.017Z,91.02
2022-09-23T07:16:43.887Z,91.02
2022-09-23T07:17:43.869Z,91.11
2022-09-23T07:18:43.799Z,90.92
2022-09-23T07:19:43.757Z,90.92
2022-09-23T07:20:43.714Z,90.35
2022-09-23T07:21:43.683Z,90.11
2022-09-23T07:22:43.626Z,90.01
2022-09-23T07:23:43.604Z,89.34
2022-09-23T07:24:43.552Z,89.15
2022-09-23T07:25:43.503Z,89.15
2022-09-23T07:26:45.681Z,89.34
2022-09-23T07:27:43.411Z,89.20
2022-09-23T07:28:43.368Z,89.10
2022-09-23T07:29:48.320Z,88.62
2022-09-23T07:30:55.983Z,88.62
2022-09-23T07:31:43.282Z,88.81
2022-09-23T07:32:48.779Z,88.43
2022-09-23T07:33:43.207Z,88.62
2022-09-23T07:34:43.113Z,87.95
2022-09-23T07:35:43.069Z,87.71
2022-09-23T07:36:43.064Z,87.71
2022-09-23T07:37:42.989Z,86.94
2022-09-23T07:38:45.504Z,87.23
2022-09-23T07:39:42.899Z,86.66
2022-09-23T07:40:42.922Z,86.85
2022-09-23T07:41:42.815Z,86.99
2022-09-23T07:42:42.786Z,86.13
2022-09-23T07:43:42.729Z,86.13
2022-09-23T07:44:42.684Z,85.84
2022-09-23T07:45:42.646Z,85.46
2022-09-23T07:46:42.667Z,84.92
2022-09-23T07:47:42.557Z,84.74
2022-09-23T07:48:42.538Z,84.55
2022-09-23T07:49:42.478Z,83.97
2022-09-23T07:50:42.430Z,84.55
2022-09-23T07:51:42.394Z,84.64
2022-09-23T07:52:42.349Z,84.35
2022-09-23T07:53:42.306Z,84.20
2022-09-23T07:54:42.290Z,84.20
2022-09-23T07:55:42.220Z,84.39
2022-09-23T07:56:42.185Z,84.01
2022-09-23T07:57:42.144Z,83.53
2022-09-23T07:58:42.097Z,83.25
2022-09-23T07:59:42.057Z,82.76
2022-09-23T08:00:42.042Z,82.76
2022-09-23T08:01:42.036Z,82.29
2022-09-23T08:02:42.006Z,82.19
2022-09-23T08:03:41.888Z,82.67
2022-09-23T08:04:42.508Z,82.67
2022-09-23T08:05:41.801Z,83.05
2022-09-23T08:06:41.789Z,82.57
2022-09-23T08:07:41.727Z,81.71
2022-09-23T08:08:41.680Z,81.56
2022-09-23T08:09:41.678Z,81.46
2022-09-23T08:10:41.598Z,82.04
2022-09-23T08:11:41.571Z,81.37
2022-09-23T08:12:41.517Z,81.08
2022-09-23T08:13:41.476Z,80.99
2022-09-23T08:14:41.457Z,80.60
2022-09-23T08:15:41.450Z,80.64
2022-09-23T08:16:41.354Z,80.64
2022-09-23T08:17:41.309Z,79.68
2022-09-23T08:18:41.264Z,79.01
2022-09-23T08:19:41.224Z,77.86
2022-09-23T08:20:43.683Z,77.95
2022-09-23T08:21:41.144Z,77.38
2022-09-23T08:22:41.101Z,77.58
2022-09-23T08:23:41.061Z,77.09
2022-09-23T08:24:41.023Z,77.38
2022-09-23T08:25:42.009Z,77.76
2022-09-23T08:26:40.955Z,77.58
2022-09-23T08:27:40.895Z,78.15
2022-09-23T08:28:40.848Z,78.05
2022-09-23T08:29:40.811Z,77.29
2022-09-23T08:30:40.799Z,77.67
2022-09-23T08:31:40.730Z,77.58
2022-09-23T08:32:40.723Z,77.67
2022-09-23T08:33:40.656Z,77.38
2022-09-23T08:34:40.598Z,77.67
2022-09-23T08:35:40.561Z,77.09
2022-09-23T08:36:40.521Z,77.90
2022-09-23T08:37:40.481Z,77.04
2022-09-23T08:38:40.475Z,76.94
2022-09-23T08:39:40.396Z,77.51
2022-09-23T08:40:40.387Z,77.33
2022-09-23T08:41:40.317Z,77.46
2022-09-23T08:42:40.277Z,77.56
2022-09-23T08:43:40.232Z,77.46
2022-09-23T08:44:40.206Z,77.01
2022-09-23T08:45:40.151Z,75.71
2022-09-23T08:46:40.109Z,74.46
2022-09-23T08:47:40.070Z,72.77
2022-09-23T08:48:40.028Z,70.01
2022-09-23T08:49:40.019Z,68.32
2022-09-23T08:50:39.952Z,66.52
2022-09-23T08:51:39.908Z,65.11
2022-09-23T08:52:39.870Z,62.63
2022-09-23T08:53:39.830Z,60.45
2022-09-23T08:54:39.807Z,59.23
2022-09-23T08:55:39.749Z,58.39
2022-09-23T08:56:39.715Z,56.74
2022-09-23T08:57:39.679Z,54.75
2022-09-23T08:58:39.635Z,54.87
2022-09-23T08:59:39.599Z,55.77
2022-09-23T09:00:39.593Z,54.73
2022-09-23T09:01:39.627Z,53.86
2022-09-23T09:02:39.532Z,50.89
2022-09-23T09:03:39.445Z,49.63
2022-09-23T09:04:39.410Z,50.14
2022-09-23T09:05:39.372Z,49.46
2022-09-23T09:06:52.285Z,48.71
2022-09-23T09:07:39.298Z,48.15
2022-09-23T09:08:39.293Z,47.86
2022-09-23T09:09:39.248Z,48.27
2022-09-23T09:10:39.190Z,46.33
2022-09-23T09:11:39.165Z,45.85
2022-09-23T09:12:39.115Z,44.59
2022-09-23T09:13:39.086Z,44.40
2022-09-23T09:14:39.045Z,45.39
2022-09-23T09:15:39.070Z,43.74
2022-09-23T09:16:58.374Z,42.96
2022-09-23T09:17:38.960Z,43.16
2022-09-23T09:18:38.902Z,42.86
2022-09-23T09:19:38.867Z,42.99
2022-09-23T09:20:38.829Z,42.91
2022-09-23T09:21:38.802Z,43.01
2022-09-23T09:22:38.770Z,42.54
2022-09-23T09:23:38.738Z,41.78
2022-09-23T09:24:38.692Z,41.69
2022-09-23T09:25:38.664Z,41.42
2022-09-23T09:26:38.639Z,39.96
2022-09-23T09:27:38.588Z,39.20
2022-09-23T09:28:38.551Z,39.10
2022-09-23T09:29:38.821Z,38.42
2022-09-23T09:30:38.527Z,38.71
2022-09-23T09:31:38.629Z,38.62
2022-09-23T09:32:38.423Z,38.52
2022-09-23T09:33:38.378Z,38.81
2022-09-23T09:34:38.345Z,38.83
2022-09-23T09:35:38.358Z,38.64
2022-09-23T09:36:38.275Z,38.46
2022-09-23T09:37:38.238Z,37.48
2022-09-23T09:38:38.212Z,37.77
2022-09-23T09:39:38.173Z,37.12
2022-09-23T09:40:38.188Z,35.94
2022-09-23T09:41:38.118Z,35.93
2022-09-23T09:42:38.074Z,35.83
2022-09-23T09:43:38.859Z,35.52
2022-09-23T09:44:38.105Z,35.89
2022-09-23T09:45:37.969Z,36.08
2022-09-23T09:46:37.982Z,36.47
2022-09-23T09:47:37.901Z,37.08
2022-09-23T09:48:37.875Z,36.88
2022-09-23T09:49:40.527Z,36.38
2022-09-23T09:50:37.818Z,36.00
2022-09-23T09:51:37.768Z,35.71
2022-09-23T09:52:37.699Z,35.71
2022-09-23T09:53:37.659Z,36.00
2022-09-23T09:54:37.612Z,36.40
2022-09-23T09:55:37.575Z,36.57
2022-09-23T09:56:37.622Z,37.26
2022-09-23T09:57:37.521Z,36.85
2022-09-23T09:58:37.479Z,37.34
2022-09-23T09:59:37.441Z,37.06
2022-09-23T10:00:37.410Z,37.45
2022-09-23T10:01:37.443Z,37.72
2022-09-23T10:02:37.364Z,37.06
2022-09-23T10:03:37.305Z,37.06
2022-09-23T10:04:37.290Z,36.67
2022-09-23T10:05:37.237Z,37.16
2022-09-23T10:06:37.205Z,36.87
2022-09-23T10:07:37.168Z,36.88
2022-09-23T10:08:37.152Z,36.88
2022-09-23T10:09:37.103Z,36.61
2022-09-23T10:10:37.068Z,35.85
2022-09-23T10:11:37.037Z,35.28
2022-09-23T10:12:37.009Z,34.69
2022-09-23T10:13:36.982Z,34.68
2022-09-23T10:14:36.938Z,35.18
2022-09-23T10:15:38.522Z,35.00
2022-09-23T10:16:36.931Z,34.12
2022-09-23T10:17:36.836Z,34.03
2022-09-23T10:18:36.806Z,33.93
2022-09-23T10:19:36.785Z,34.42
2022-09-23T10:20:36.736Z,34.44
2022-09-23T10:21:36.712Z,33.28
2022-09-23T10:22:36.676Z,33.18
2022-09-23T10:23:36.645Z,32.89
2022-09-23T10:24:36.611Z,32.70
2022-09-23T10:25:36.615Z,32.60
2022-09-23T10:26:36.547Z,32.40
2022-09-23T10:27:36.513Z,32.62
2022-09-23T10:28:36.484Z,32.34
2022-09-23T10:29:36.453Z,32.03
2022-09-23T10:30:36.527Z,32.63
2022-09-23T10:31:36.400Z,32.62
2022-09-23T10:32:36.363Z,32.23
2022-09-23T10:33:36.325Z,31.33
2022-09-23T10:34:36.300Z,31.92
2022-09-23T10:35:36.256Z,32.01
2022-09-23T10:36:36.341Z,32.19
2022-09-23T10:37:36.198Z,32.87
2022-09-23T10:38:36.168Z,32.67
2022-09-23T10:39:36.137Z,33.56
2022-09-23T10:40:36.170Z,32.86
2022-09-23T10:41:36.073Z,32.97
2022-09-23T10:42:36.056Z,32.86
2022-09-23T10:43:36.005Z,32.76
2022-09-23T10:44:35.976Z,33.23
2022-09-23T10:45:38.565Z,33.72
2022-09-23T10:46:36.008Z,34.29
2022-09-23T10:47:35.875Z,33.88
2022-09-23T10:48:35.859Z,34.37
2022-09-23T10:49:35.820Z,35.33
2022-09-23T10:50:35.805Z,35.99
2022-09-23T10:51:35.751Z,35.41
2022-09-23T10:52:35.720Z,35.89
2022-09-23T10:53:35.689Z,35.99
2022-09-23T10:54:35.652Z,35.89
2022-09-23T10:55:35.614Z,36.57
2022-09-23T10:56:35.607Z,36.10
2022-09-23T10:57:35.557Z,36.22
2022-09-23T10:58:35.526Z,36.02
2022-09-23T10:59:35.488Z,34.88
2022-09-23T11:00:35.458Z,34.00
2022-09-23T11:01:35.498Z,33.90
2022-09-23T11:02:35.408Z,34.48
2022-09-23T11:03:35.360Z,34.48
2022-09-23T11:04:35.423Z,34.72
2022-09-23T11:05:35.293Z,35.50
2022-09-23T11:06:35.261Z,35.60
2022-09-23T11:07:37.077Z,35.70
2022-09-23T11:08:35.222Z,35.41
2022-09-23T11:09:35.171Z,35.50
2022-09-23T11:10:45.855Z,35.52
2022-09-23T11:11:35.104Z,35.52
2022-09-23T11:12:35.073Z,35.23
2022-09-23T11:13:35.038Z,34.95
2022-09-23T11:14:35.017Z,35.25
2022-09-23T11:15:34.971Z,34.88
2022-09-23T11:16:35.031Z,34.69
2022-09-23T11:17:34.907Z,34.31
2022-09-23T11:18:34.879Z,34.40
2022-09-23T11:19:34.863Z,34.11
2022-09-23T11:20:34.812Z,34.31
2022-09-23T11:21:34.784Z,33.92
2022-09-23T11:22:34.757Z,33.83
2022-09-23T11:23:34.716Z,33.75
2022-09-23T11:24:34.687Z,33.93
2022-09-23T11:25:34.672Z,33.26
2022-09-23T11:26:34.620Z,33.58
2022-09-23T11:27:34.587Z,32.89
2022-09-23T11:28:34.557Z,33.38
2022-09-23T11:29:34.527Z,32.50
2022-09-23T11:30:34.522Z,32.60
2022-09-23T11:31:34.493Z,32.50
2022-09-23T11:32:34.435Z,32.42
2022-09-23T11:33:34.404Z,32.73
2022-09-23T11:34:34.371Z,31.85
2022-09-23T11:35:34.363Z,32.24
2022-09-23T11:36:34.310Z,32.14
2022-09-23T11:37:34.281Z,32.24
2022-09-23T11:38:34.253Z,31.85
2022-09-23T11:39:34.253Z,31.56
2022-09-23T11:40:34.326Z,32.06
2022-09-23T11:41:34.155Z,32.06
2022-09-23T11:42:34.134Z,31.59
2022-09-23T11:43:34.096Z,31.31
2022-09-23T11:44:34.067Z,30.82
2022-09-23T11:45:34.132Z,30.62
2022-09-23T11:46:34.003Z,30.52
2022-09-23T11:47:38.983Z,31.10
2022-09-23T11:48:33.937Z,31.01
2022-09-23T11:49:33.910Z,30.88
2022-09-23T11:50:33.878Z,31.38
2022-09-23T11:51:33.871Z,31.48
2022-09-23T11:52:33.818Z,32.45
2022-09-23T11:53:33.794Z,32.07
2022-09-23T11:54:33.758Z,31.51
2022-09-23T11:55:33.730Z,31.23
2022-09-23T11:56:36.427Z,30.94
2022-09-23T11:57:45.502Z,30.26
2022-09-23T11:58:33.670Z,29.88
2022-09-23T11:59:40.320Z,30.07
2022-09-23T12:00:33.583Z,30.64
2022-09-23T12:01:37.741Z,31.21
2022-09-23T12:02:33.710Z,31.29
2022-09-23T12:03:43.475Z,31.59
2022-09-23T12:04:33.551Z,31.59
2022-09-23T12:05:33.529Z,31.51
2022-09-23T12:06:33.393Z,31.31
2022-09-23T12:07:33.368Z,31.11
2022-09-23T12:08:33.363Z,31.70
2022-09-23T12:09:56.641Z,31.11
2022-09-23T12:10:33.276Z,31.39
2022-09-23T12:11:33.248Z,31.41
2022-09-23T12:12:33.228Z,31.59
2022-09-23T12:13:33.179Z,31.67
2022-09-23T12:14:33.175Z,31.20
2022-09-23T12:15:33.120Z,31.48
2022-09-23T12:16:34.941Z,31.85
2022-09-23T12:17:33.056Z,32.32
2022-09-23T12:18:33.033Z,32.55
2022-09-23T12:19:33.034Z,32.09
2022-09-23T12:20:32.973Z,31.62
2022-09-23T12:21:49.627Z,30.75
2022-09-23T12:22:32.903Z,30.16
2022-09-23T12:23:32.876Z,29.87
2022-09-23T12:24:32.849Z,30.16
2022-09-23T12:25:32.834Z,30.65
2022-09-23T12:26:32.785Z,30.96
2022-09-23T12:27:32.758Z,30.78
2022-09-23T12:28:32.723Z,29.62
2022-09-23T12:29:32.699Z,28.91
2022-09-23T12:30:32.695Z,29.77
2022-09-23T12:31:33.918Z,29.77
2022-09-23T12:32:32.609Z,30.08
2022-09-23T12:33:32.580Z,29.88
2022-09-23T12:34:32.551Z,29.30
2022-09-23T12:35:32.512Z,29.20
2022-09-23T12:36:32.484Z,29.49
2022-09-23T12:37:32.477Z,29.11
2022-09-23T12:38:32.426Z,29.11
2022-09-23T12:39:32.394Z,29.10
2022-09-23T12:40:32.401Z,29.21
2022-09-23T12:41:32.334Z,29.31
2022-09-23T12:42:32.306Z,29.21
2022-09-23T12:43:32.291Z,29.11
2022-09-23T12:44:32.253Z,29.11
2022-09-23T12:45:32.356Z,29.20
2022-09-23T12:46:32.186Z,29.59
2022-09-23T12:47:32.155Z,29.39
2022-09-23T12:48:32.131Z,29.79
2022-09-23T12:49:32.136Z,30.19
2022-09-23T12:50:32.064Z,29.05
2022-09-23T12:51:32.039Z,28.95
2022-09-23T12:52:32.012Z,28.67
2022-09-23T12:53:31.974Z,28.49
2022-09-23T12:54:31.946Z,28.29
2022-09-23T12:55:31.938Z,28.19